sensor_id;sensor_type;location;lat;lon;timestamp;P1;durP1;ratioP1;P2;durP2;ratioP2
18048;SDS011;9149;47.002;8.604;2023-11-21T00:01:11;4.20;;;1.37;;
18048;SDS011;9149;47.002;8.604;2023-11-21T00:03:57;3.10;;;1.63;;
18048;SDS011;9149;47.002;8.604;2023-11-21T00:06:25;3.80;;;1.60;;
18048;SDS011;9149;47.002;8.604;2023-11-21T00:11:19;5.40;;;1.50;;
18048;SDS011;9149;47.002;8.604;2023-11-21T00:13:47;6.93;;;1.70;;
18048;SDS011;9149;47.002;8.604;2023-11-21T00:16:16;2.70;;;1.50;;
18048;SDS011;9149;47.002;8.604;2023-11-21T00:18:45;2.63;;;1.23;;
18048;SDS011;9149;47.002;8.604;2023-11-21T00:21:13;5.70;;;2.00;;
18048;SDS011;9149;47.002;8.604;2023-11-21T00:23:42;3.87;;;1.57;;
18048;SDS011;9149;47.002;8.604;2023-11-21T00:26:10;6.90;;;1.30;;
18048;SDS011;9149;47.002;8.604;2023-11-21T00:28:39;7.10;;;1.50;;
18048;SDS011;9149;47.002;8.604;2023-11-21T00:31:08;3.77;;;1.40;;
18048;SDS011;9149;47.002;8.604;2023-11-21T00:33:35;4.13;;;1.53;;
18048;SDS011;9149;47.002;8.604;2023-11-21T00:36:03;3.47;;;1.37;;
18048;SDS011;9149;47.002;8.604;2023-11-21T00:38:32;6.27;;;1.60;;
18048;SDS011;9149;47.002;8.604;2023-11-21T00:41:00;4.43;;;1.50;;
18048;SDS011;9149;47.002;8.604;2023-11-21T00:43:28;5.97;;;1.30;;
18048;SDS011;9149;47.002;8.604;2023-11-21T00:45:58;3.37;;;1.50;;
18048;SDS011;9149;47.002;8.604;2023-11-21T00:48:25;2.90;;;1.27;;
18048;SDS011;9149;47.002;8.604;2023-11-21T00:50:53;1.33;;;1.00;;
18048;SDS011;9149;47.002;8.604;2023-11-21T00:53:22;5.03;;;1.20;;
18048;SDS011;9149;47.002;8.604;2023-11-21T00:55:50;5.90;;;1.37;;
18048;SDS011;9149;47.002;8.604;2023-11-21T00:58:18;2.80;;;1.37;;
18048;SDS011;9149;47.002;8.604;2023-11-21T01:00:46;7.33;;;1.30;;
18048;SDS011;9149;47.002;8.604;2023-11-21T01:03:16;2.90;;;1.40;;
18048;SDS011;9149;47.002;8.604;2023-11-21T01:05:44;4.33;;;1.17;;
18048;SDS011;9149;47.002;8.604;2023-11-21T01:08:11;3.43;;;1.30;;
18048;SDS011;9149;47.002;8.604;2023-11-21T01:10:39;1.77;;;1.10;;
18048;SDS011;9149;47.002;8.604;2023-11-21T01:13:07;3.33;;;1.50;;
18048;SDS011;9149;47.002;8.604;2023-11-21T01:15:35;1.47;;;1.20;;
18048;SDS011;9149;47.002;8.604;2023-11-21T01:18:02;3.70;;;1.30;;
18048;SDS011;9149;47.002;8.604;2023-11-21T01:20:32;6.50;;;1.60;;
18048;SDS011;9149;47.002;8.604;2023-11-21T01:22:59;6.47;;;1.70;;
18048;SDS011;9149;47.002;8.604;2023-11-21T01:25:27;4.70;;;1.50;;
18048;SDS011;9149;47.002;8.604;2023-11-21T01:27:55;11.80;;;1.40;;
18048;SDS011;9149;47.002;8.604;2023-11-21T01:30:23;5.93;;;1.50;;
18048;SDS011;9149;47.002;8.604;2023-11-21T01:32:52;7.37;;;1.40;;
18048;SDS011;9149;47.002;8.604;2023-11-21T01:35:20;6.60;;;1.60;;
18048;SDS011;9149;47.002;8.604;2023-11-21T01:37:49;3.80;;;1.30;;
18048;SDS011;9149;47.002;8.604;2023-11-21T01:40:17;3.80;;;1.47;;
18048;SDS011;9149;47.002;8.604;2023-11-21T01:42:45;4.77;;;1.40;;
18048;SDS011;9149;47.002;8.604;2023-11-21T01:45:13;3.67;;;1.47;;
18048;SDS011;9149;47.002;8.604;2023-11-21T01:47:42;5.23;;;1.57;;
18048;SDS011;9149;47.002;8.604;2023-11-21T01:50:12;4.90;;;1.50;;
18048;SDS011;9149;47.002;8.604;2023-11-21T01:52:41;1.70;;;1.37;;
18048;SDS011;9149;47.002;8.604;2023-11-21T01:55:11;2.50;;;1.37;;
18048;SDS011;9149;47.002;8.604;2023-11-21T01:57:49;4.43;;;1.40;;
18048;SDS011;9149;47.002;8.604;2023-11-21T02:00:17;7.40;;;1.23;;
18048;SDS011;9149;47.002;8.604;2023-11-21T02:02:46;2.63;;;1.27;;
18048;SDS011;9149;47.002;8.604;2023-11-21T02:05:14;4.17;;;1.40;;
18048;SDS011;9149;47.002;8.604;2023-11-21T02:07:45;1.93;;;1.30;;
18048;SDS011;9149;47.002;8.604;2023-11-21T02:10:15;2.63;;;1.67;;
18048;SDS011;9149;47.002;8.604;2023-11-21T02:12:44;6.90;;;1.70;;
18048;SDS011;9149;47.002;8.604;2023-11-21T02:15:12;3.33;;;1.80;;
18048;SDS011;9149;47.002;8.604;2023-11-21T02:17:47;4.17;;;1.50;;
18048;SDS011;9149;47.002;8.604;2023-11-21T02:20:18;2.07;;;1.43;;
18048;SDS011;9149;47.002;8.604;2023-11-21T02:22:49;4.20;;;1.60;;
18048;SDS011;9149;47.002;8.604;2023-11-21T02:25:18;5.17;;;1.57;;
18048;SDS011;9149;47.002;8.604;2023-11-21T02:27:47;4.93;;;1.57;;
18048;SDS011;9149;47.002;8.604;2023-11-21T02:30:14;5.13;;;1.73;;
18048;SDS011;9149;47.002;8.604;2023-11-21T02:32:42;5.03;;;1.87;;
18048;SDS011;9149;47.002;8.604;2023-11-21T02:35:15;4.40;;;1.53;;
18048;SDS011;9149;47.002;8.604;2023-11-21T02:38:02;7.60;;;1.50;;
18048;SDS011;9149;47.002;8.604;2023-11-21T02:40:29;1.87;;;1.37;;
18048;SDS011;9149;47.002;8.604;2023-11-21T02:42:57;2.07;;;1.40;;
18048;SDS011;9149;47.002;8.604;2023-11-21T02:45:25;2.70;;;1.40;;
18048;SDS011;9149;47.002;8.604;2023-11-21T02:47:53;2.60;;;1.70;;
18048;SDS011;9149;47.002;8.604;2023-11-21T02:50:23;1.73;;;1.20;;
18048;SDS011;9149;47.002;8.604;2023-11-21T02:52:51;3.10;;;1.60;;
18048;SDS011;9149;47.002;8.604;2023-11-21T02:55:20;2.67;;;1.20;;
18048;SDS011;9149;47.002;8.604;2023-11-21T02:57:48;2.37;;;1.07;;
18048;SDS011;9149;47.002;8.604;2023-11-21T03:00:17;6.20;;;1.20;;
18048;SDS011;9149;47.002;8.604;2023-11-21T03:02:45;2.97;;;1.50;;
18048;SDS011;9149;47.002;8.604;2023-11-21T03:05:14;3.50;;;1.50;;
18048;SDS011;9149;47.002;8.604;2023-11-21T03:07:41;4.97;;;1.20;;
18048;SDS011;9149;47.002;8.604;2023-11-21T03:10:09;10.13;;;1.33;;
18048;SDS011;9149;47.002;8.604;2023-11-21T03:12:39;3.40;;;1.27;;
18048;SDS011;9149;47.002;8.604;2023-11-21T03:15:07;9.17;;;1.20;;
18048;SDS011;9149;47.002;8.604;2023-11-21T03:17:35;3.10;;;1.40;;
18048;SDS011;9149;47.002;8.604;2023-11-21T03:20:03;2.40;;;1.30;;
18048;SDS011;9149;47.002;8.604;2023-11-21T03:22:31;4.80;;;1.43;;
18048;SDS011;9149;47.002;8.604;2023-11-21T03:25:00;3.47;;;1.47;;
18048;SDS011;9149;47.002;8.604;2023-11-21T03:27:28;4.70;;;1.23;;
18048;SDS011;9149;47.002;8.604;2023-11-21T03:29:57;5.90;;;1.40;;
18048;SDS011;9149;47.002;8.604;2023-11-21T03:32:24;1.70;;;1.10;;
18048;SDS011;9149;47.002;8.604;2023-11-21T03:34:52;1.77;;;1.23;;
18048;SDS011;9149;47.002;8.604;2023-11-21T03:37:21;4.63;;;1.50;;
18048;SDS011;9149;47.002;8.604;2023-11-21T03:39:48;4.10;;;1.50;;
18048;SDS011;9149;47.002;8.604;2023-11-21T03:42:16;5.70;;;1.50;;
18048;SDS011;9149;47.002;8.604;2023-11-21T03:44:44;2.93;;;1.30;;
18048;SDS011;9149;47.002;8.604;2023-11-21T03:47:14;4.97;;;1.43;;
18048;SDS011;9149;47.002;8.604;2023-11-21T03:49:42;3.60;;;1.20;;
18048;SDS011;9149;47.002;8.604;2023-11-21T03:52:10;2.77;;;1.40;;
18048;SDS011;9149;47.002;8.604;2023-11-21T03:54:38;2.97;;;1.27;;
18048;SDS011;9149;47.002;8.604;2023-11-21T03:57:07;2.07;;;1.30;;
18048;SDS011;9149;47.002;8.604;2023-11-21T03:59:35;5.90;;;1.43;;
18048;SDS011;9149;47.002;8.604;2023-11-21T04:02:03;1.97;;;1.37;;
18048;SDS011;9149;47.002;8.604;2023-11-21T04:04:32;3.07;;;1.40;;
18048;SDS011;9149;47.002;8.604;2023-11-21T04:07:00;7.50;;;1.80;;
18048;SDS011;9149;47.002;8.604;2023-11-21T04:09:28;1.77;;;1.30;;
18048;SDS011;9149;47.002;8.604;2023-11-21T04:11:56;1.53;;;1.20;;
18048;SDS011;9149;47.002;8.604;2023-11-21T04:14:23;8.73;;;1.90;;
18048;SDS011;9149;47.002;8.604;2023-11-21T04:16:57;6.27;;;1.67;;
18048;SDS011;9149;47.002;8.604;2023-11-21T04:19:25;2.70;;;1.60;;
18048;SDS011;9149;47.002;8.604;2023-11-21T04:21:54;7.50;;;1.50;;
18048;SDS011;9149;47.002;8.604;2023-11-21T04:24:22;3.53;;;1.20;;
18048;SDS011;9149;47.002;8.604;2023-11-21T04:26:49;3.00;;;1.17;;
18048;SDS011;9149;47.002;8.604;2023-11-21T04:29:17;2.10;;;1.10;;
18048;SDS011;9149;47.002;8.604;2023-11-21T04:31:45;2.83;;;1.27;;
18048;SDS011;9149;47.002;8.604;2023-11-21T04:34:15;3.60;;;1.20;;
18048;SDS011;9149;47.002;8.604;2023-11-21T04:36:43;2.37;;;1.10;;
18048;SDS011;9149;47.002;8.604;2023-11-21T04:39:12;7.47;;;1.50;;
18048;SDS011;9149;47.002;8.604;2023-11-21T04:41:40;5.80;;;1.57;;
18048;SDS011;9149;47.002;8.604;2023-11-21T04:44:07;3.70;;;1.43;;
18048;SDS011;9149;47.002;8.604;2023-11-21T04:46:35;4.93;;;1.47;;
18048;SDS011;9149;47.002;8.604;2023-11-21T04:49:03;5.20;;;1.40;;
18048;SDS011;9149;47.002;8.604;2023-11-21T04:51:31;3.33;;;1.40;;
18048;SDS011;9149;47.002;8.604;2023-11-21T04:53:59;2.60;;;1.43;;
18048;SDS011;9149;47.002;8.604;2023-11-21T04:56:28;3.83;;;1.40;;
18048;SDS011;9149;47.002;8.604;2023-11-21T04:58:55;1.30;;;1.00;;
18048;SDS011;9149;47.002;8.604;2023-11-21T05:01:23;3.20;;;1.13;;
18048;SDS011;9149;47.002;8.604;2023-11-21T05:03:51;4.80;;;1.30;;
18048;SDS011;9149;47.002;8.604;2023-11-21T05:06:19;2.17;;;1.00;;
18048;SDS011;9149;47.002;8.604;2023-11-21T05:08:47;3.43;;;1.33;;
18048;SDS011;9149;47.002;8.604;2023-11-21T05:11:22;4.90;;;1.50;;
18048;SDS011;9149;47.002;8.604;2023-11-21T05:13:51;2.10;;;1.33;;
18048;SDS011;9149;47.002;8.604;2023-11-21T05:16:20;2.23;;;1.30;;
18048;SDS011;9149;47.002;8.604;2023-11-21T05:18:49;3.00;;;1.17;;
18048;SDS011;9149;47.002;8.604;2023-11-21T05:21:17;2.87;;;1.30;;
18048;SDS011;9149;47.002;8.604;2023-11-21T05:23:47;6.47;;;1.20;;
18048;SDS011;9149;47.002;8.604;2023-11-21T05:26:15;7.67;;;1.40;;
18048;SDS011;9149;47.002;8.604;2023-11-21T05:28:42;6.07;;;1.50;;
18048;SDS011;9149;47.002;8.604;2023-11-21T05:31:11;3.63;;;1.33;;
18048;SDS011;9149;47.002;8.604;2023-11-21T05:33:42;6.53;;;1.43;;
18048;SDS011;9149;47.002;8.604;2023-11-21T05:36:10;3.57;;;1.30;;
18048;SDS011;9149;47.002;8.604;2023-11-21T05:38:38;3.07;;;1.13;;
18048;SDS011;9149;47.002;8.604;2023-11-21T05:41:06;10.07;;;1.50;;
18048;SDS011;9149;47.002;8.604;2023-11-21T05:43:37;4.13;;;1.27;;
18048;SDS011;9149;47.002;8.604;2023-11-21T05:46:05;2.30;;;1.40;;
18048;SDS011;9149;47.002;8.604;2023-11-21T05:48:35;2.00;;;1.40;;
18048;SDS011;9149;47.002;8.604;2023-11-21T05:51:04;4.40;;;1.50;;
18048;SDS011;9149;47.002;8.604;2023-11-21T05:53:31;5.57;;;1.40;;
18048;SDS011;9149;47.002;8.604;2023-11-21T05:55:59;3.93;;;1.30;;
18048;SDS011;9149;47.002;8.604;2023-11-21T05:58:27;3.63;;;1.63;;
18048;SDS011;9149;47.002;8.604;2023-11-21T06:00:55;2.70;;;2.10;;
18048;SDS011;9149;47.002;8.604;2023-11-21T06:03:23;5.93;;;1.57;;
18048;SDS011;9149;47.002;8.604;2023-11-21T06:05:53;3.77;;;1.80;;
18048;SDS011;9149;47.002;8.604;2023-11-21T06:08:20;2.90;;;1.50;;
18048;SDS011;9149;47.002;8.604;2023-11-21T06:10:48;2.97;;;1.43;;
18048;SDS011;9149;47.002;8.604;2023-11-21T06:13:16;3.87;;;1.63;;
18048;SDS011;9149;47.002;8.604;2023-11-21T06:15:47;5.63;;;1.33;;
18048;SDS011;9149;47.002;8.604;2023-11-21T06:18:15;4.73;;;1.40;;
18048;SDS011;9149;47.002;8.604;2023-11-21T06:20:42;7.27;;;1.47;;
18048;SDS011;9149;47.002;8.604;2023-11-21T06:23:11;4.70;;;1.67;;
18048;SDS011;9149;47.002;8.604;2023-11-21T06:25:40;6.40;;;1.67;;
18048;SDS011;9149;47.002;8.604;2023-11-21T06:28:08;9.63;;;1.90;;
18048;SDS011;9149;47.002;8.604;2023-11-21T06:30:36;2.70;;;1.70;;
18048;SDS011;9149;47.002;8.604;2023-11-21T06:33:04;7.83;;;1.77;;
18048;SDS011;9149;47.002;8.604;2023-11-21T06:35:33;4.60;;;1.47;;
18048;SDS011;9149;47.002;8.604;2023-11-21T06:38:01;6.27;;;1.87;;
18048;SDS011;9149;47.002;8.604;2023-11-21T06:40:30;7.80;;;1.70;;
18048;SDS011;9149;47.002;8.604;2023-11-21T06:43:00;2.77;;;1.77;;
18048;SDS011;9149;47.002;8.604;2023-11-21T06:45:28;2.13;;;1.63;;
18048;SDS011;9149;47.002;8.604;2023-11-21T06:47:55;3.50;;;1.90;;
18048;SDS011;9149;47.002;8.604;2023-11-21T06:50:23;8.53;;;2.10;;
18048;SDS011;9149;47.002;8.604;2023-11-21T06:52:51;6.03;;;2.10;;
18048;SDS011;9149;47.002;8.604;2023-11-21T06:55:19;7.47;;;2.60;;
18048;SDS011;9149;47.002;8.604;2023-11-21T06:57:49;5.93;;;2.27;;
18048;SDS011;9149;47.002;8.604;2023-11-21T07:00:18;8.50;;;2.20;;
18048;SDS011;9149;47.002;8.604;2023-11-21T07:02:46;7.77;;;2.20;;
18048;SDS011;9149;47.002;8.604;2023-11-21T07:05:14;6.63;;;2.13;;
18048;SDS011;9149;47.002;8.604;2023-11-21T07:07:42;4.03;;;1.83;;
18048;SDS011;9149;47.002;8.604;2023-11-21T07:10:10;7.63;;;2.20;;
18048;SDS011;9149;47.002;8.604;2023-11-21T07:12:38;3.70;;;1.53;;
18048;SDS011;9149;47.002;8.604;2023-11-21T07:15:08;2.23;;;1.47;;
18048;SDS011;9149;47.002;8.604;2023-11-21T07:17:36;1.77;;;1.60;;
18048;SDS011;9149;47.002;8.604;2023-11-21T07:20:07;6.27;;;1.70;;
18048;SDS011;9149;47.002;8.604;2023-11-21T07:22:35;7.43;;;1.73;;
18048;SDS011;9149;47.002;8.604;2023-11-21T07:25:03;8.37;;;1.87;;
18048;SDS011;9149;47.002;8.604;2023-11-21T07:27:31;12.03;;;2.00;;
18048;SDS011;9149;47.002;8.604;2023-11-21T07:30:00;3.00;;;1.97;;
18048;SDS011;9149;47.002;8.604;2023-11-21T07:32:32;6.80;;;2.10;;
18048;SDS011;9149;47.002;8.604;2023-11-21T07:35:00;5.17;;;2.30;;
18048;SDS011;9149;47.002;8.604;2023-11-21T07:37:28;4.30;;;1.90;;
18048;SDS011;9149;47.002;8.604;2023-11-21T07:39:56;5.40;;;1.90;;
18048;SDS011;9149;47.002;8.604;2023-11-21T07:42:24;3.40;;;1.83;;
18048;SDS011;9149;47.002;8.604;2023-11-21T07:45:11;7.83;;;2.17;;
18048;SDS011;9149;47.002;8.604;2023-11-21T07:47:40;4.63;;;1.70;;
18048;SDS011;9149;47.002;8.604;2023-11-21T07:50:08;6.20;;;2.07;;
18048;SDS011;9149;47.002;8.604;2023-11-21T07:52:36;5.70;;;2.40;;
18048;SDS011;9149;47.002;8.604;2023-11-21T07:55:04;3.30;;;2.10;;
18048;SDS011;9149;47.002;8.604;2023-11-21T07:57:32;5.60;;;2.00;;
18048;SDS011;9149;47.002;8.604;2023-11-21T07:59:59;9.93;;;2.07;;
18048;SDS011;9149;47.002;8.604;2023-11-21T08:02:38;2.50;;;1.90;;
18048;SDS011;9149;47.002;8.604;2023-11-21T08:05:07;5.33;;;2.20;;
18048;SDS011;9149;47.002;8.604;2023-11-21T08:07:41;9.23;;;2.67;;
18048;SDS011;9149;47.002;8.604;2023-11-21T08:10:09;5.83;;;2.30;;
18048;SDS011;9149;47.002;8.604;2023-11-21T08:12:37;4.70;;;2.70;;
18048;SDS011;9149;47.002;8.604;2023-11-21T08:15:06;4.00;;;2.10;;
18048;SDS011;9149;47.002;8.604;2023-11-21T08:17:34;9.50;;;2.57;;
18048;SDS011;9149;47.002;8.604;2023-11-21T08:20:02;9.53;;;2.63;;
18048;SDS011;9149;47.002;8.604;2023-11-21T08:22:31;4.37;;;2.37;;
18048;SDS011;9149;47.002;8.604;2023-11-21T08:25:00;5.63;;;2.60;;
18048;SDS011;9149;47.002;8.604;2023-11-21T08:27:30;3.73;;;2.23;;
18048;SDS011;9149;47.002;8.604;2023-11-21T08:29:58;9.30;;;2.50;;
18048;SDS011;9149;47.002;8.604;2023-11-21T08:32:26;5.30;;;2.70;;
18048;SDS011;9149;47.002;8.604;2023-11-21T08:34:53;9.63;;;2.67;;
18048;SDS011;9149;47.002;8.604;2023-11-21T08:37:22;2.77;;;1.80;;
18048;SDS011;9149;47.002;8.604;2023-11-21T08:39:51;8.60;;;2.10;;
18048;SDS011;9149;47.002;8.604;2023-11-21T08:42:20;3.43;;;1.90;;
18048;SDS011;9149;47.002;8.604;2023-11-21T08:44:49;5.83;;;2.10;;
18048;SDS011;9149;47.002;8.604;2023-11-21T08:47:17;4.80;;;2.40;;
18048;SDS011;9149;47.002;8.604;2023-11-21T08:49:45;3.10;;;1.93;;
18048;SDS011;9149;47.002;8.604;2023-11-21T08:52:14;3.50;;;2.00;;
18048;SDS011;9149;47.002;8.604;2023-11-21T08:54:44;3.40;;;2.17;;
18048;SDS011;9149;47.002;8.604;2023-11-21T08:57:13;4.40;;;1.97;;
18048;SDS011;9149;47.002;8.604;2023-11-21T08:59:41;5.43;;;2.00;;
18048;SDS011;9149;47.002;8.604;2023-11-21T09:02:08;3.87;;;1.50;;
18048;SDS011;9149;47.002;8.604;2023-11-21T09:04:36;5.37;;;2.30;;
18048;SDS011;9149;47.002;8.604;2023-11-21T09:07:06;2.97;;;1.90;;
18048;SDS011;9149;47.002;8.604;2023-11-21T09:09:33;6.30;;;1.53;;
18048;SDS011;9149;47.002;8.604;2023-11-21T09:12:01;7.80;;;3.07;;
18048;SDS011;9149;47.002;8.604;2023-11-21T09:14:30;3.47;;;1.77;;
18048;SDS011;9149;47.002;8.604;2023-11-21T09:16:58;5.43;;;2.10;;
18048;SDS011;9149;47.002;8.604;2023-11-21T09:19:26;11.00;;;2.00;;
18048;SDS011;9149;47.002;8.604;2023-11-21T09:21:53;5.83;;;2.20;;
18048;SDS011;9149;47.002;8.604;2023-11-21T09:24:23;4.57;;;1.90;;
18048;SDS011;9149;47.002;8.604;2023-11-21T09:26:52;11.27;;;2.20;;
18048;SDS011;9149;47.002;8.604;2023-11-21T09:29:20;5.97;;;1.73;;
18048;SDS011;9149;47.002;8.604;2023-11-21T09:31:50;5.80;;;1.70;;
18048;SDS011;9149;47.002;8.604;2023-11-21T09:34:18;4.77;;;1.50;;
18048;SDS011;9149;47.002;8.604;2023-11-21T09:36:47;4.63;;;1.53;;
18048;SDS011;9149;47.002;8.604;2023-11-21T09:39:14;2.60;;;1.50;;
18048;SDS011;9149;47.002;8.604;2023-11-21T09:41:43;4.17;;;1.37;;
18048;SDS011;9149;47.002;8.604;2023-11-21T09:44:13;1.90;;;1.40;;
18048;SDS011;9149;47.002;8.604;2023-11-21T09:46:42;2.40;;;1.13;;
18048;SDS011;9149;47.002;8.604;2023-11-21T09:49:11;1.10;;;1.00;;
18048;SDS011;9149;47.002;8.604;2023-11-21T09:51:40;1.60;;;1.17;;
18048;SDS011;9149;47.002;8.604;2023-11-21T09:54:10;3.13;;;1.10;;
18048;SDS011;9149;47.002;8.604;2023-11-21T09:56:38;2.30;;;1.00;;
18048;SDS011;9149;47.002;8.604;2023-11-21T09:59:05;1.60;;;1.07;;
18048;SDS011;9149;47.002;8.604;2023-11-21T10:01:36;3.07;;;1.20;;
18048;SDS011;9149;47.002;8.604;2023-11-21T10:04:06;1.77;;;1.17;;
18048;SDS011;9149;47.002;8.604;2023-11-21T10:06:40;2.80;;;1.00;;
18048;SDS011;9149;47.002;8.604;2023-11-21T10:09:09;1.13;;;1.03;;
18048;SDS011;9149;47.002;8.604;2023-11-21T10:11:39;1.03;;;0.93;;
18048;SDS011;9149;47.002;8.604;2023-11-21T10:14:08;1.97;;;1.00;;
18048;SDS011;9149;47.002;8.604;2023-11-21T10:16:39;1.77;;;1.00;;
18048;SDS011;9149;47.002;8.604;2023-11-21T10:19:08;5.27;;;1.37;;
18048;SDS011;9149;47.002;8.604;2023-11-21T10:21:37;2.03;;;1.30;;
18048;SDS011;9149;47.002;8.604;2023-11-21T10:24:07;2.93;;;1.43;;
18048;SDS011;9149;47.002;8.604;2023-11-21T10:26:35;1.77;;;1.30;;
18048;SDS011;9149;47.002;8.604;2023-11-21T10:29:18;1.47;;;1.10;;
18048;SDS011;9149;47.002;8.604;2023-11-21T10:31:49;1.93;;;0.90;;
18048;SDS011;9149;47.002;8.604;2023-11-21T10:34:17;1.20;;;0.90;;
18048;SDS011;9149;47.002;8.604;2023-11-21T10:36:45;1.43;;;1.00;;
18048;SDS011;9149;47.002;8.604;2023-11-21T10:39:16;2.13;;;1.20;;
18048;SDS011;9149;47.002;8.604;2023-11-21T10:41:46;1.73;;;0.97;;
18048;SDS011;9149;47.002;8.604;2023-11-21T10:44:14;5.20;;;1.20;;
18048;SDS011;9149;47.002;8.604;2023-11-21T10:46:47;4.83;;;1.20;;
18048;SDS011;9149;47.002;8.604;2023-11-21T10:49:17;2.23;;;0.90;;
18048;SDS011;9149;47.002;8.604;2023-11-21T10:51:45;4.37;;;0.97;;
18048;SDS011;9149;47.002;8.604;2023-11-21T10:54:18;2.40;;;1.00;;
18048;SDS011;9149;47.002;8.604;2023-11-21T10:56:48;1.40;;;1.00;;
18048;SDS011;9149;47.002;8.604;2023-11-21T10:59:18;3.70;;;1.37;;
18048;SDS011;9149;47.002;8.604;2023-11-21T11:01:47;3.13;;;1.02;;
18048;SDS011;9149;47.002;8.604;2023-11-21T11:04:17;2.38;;;1.00;;
18048;SDS011;9149;47.002;8.604;2023-11-21T11:06:45;1.35;;;1.00;;
18048;SDS011;9149;47.002;8.604;2023-11-21T11:09:19;3.25;;;1.00;;
18048;SDS011;9149;47.002;8.604;2023-11-21T11:11:47;1.70;;;1.00;;
18048;SDS011;9149;47.002;8.604;2023-11-21T11:14:15;2.45;;;1.10;;
18048;SDS011;9149;47.002;8.604;2023-11-21T11:16:45;2.15;;;1.10;;
18048;SDS011;9149;47.002;8.604;2023-11-21T11:19:13;2.58;;;0.93;;
18048;SDS011;9149;47.002;8.604;2023-11-21T11:21:45;2.50;;;1.40;;
18048;SDS011;9149;47.002;8.604;2023-11-21T11:24:22;4.00;;;1.30;;
18048;SDS011;9149;47.002;8.604;2023-11-21T11:26:58;1.13;;;1.02;;
18048;SDS011;9149;47.002;8.604;2023-11-21T11:29:31;2.30;;;1.10;;
18048;SDS011;9149;47.002;8.604;2023-11-21T11:32:03;8.40;;;1.23;;
18048;SDS011;9149;47.002;8.604;2023-11-21T11:34:36;2.88;;;1.35;;
18048;SDS011;9149;47.002;8.604;2023-11-21T11:37:06;1.58;;;1.10;;
18048;SDS011;9149;47.002;8.604;2023-11-21T11:39:37;1.88;;;1.23;;
18048;SDS011;9149;47.002;8.604;2023-11-21T11:42:07;1.23;;;1.10;;
18048;SDS011;9149;47.002;8.604;2023-11-21T11:47:14;2.38;;;1.17;;
18048;SDS011;9149;47.002;8.604;2023-11-21T11:49:54;12.10;;;1.37;;
18048;SDS011;9149;47.002;8.604;2023-11-21T11:55:03;2.15;;;1.00;;
18048;SDS011;9149;47.002;8.604;2023-11-21T11:57:31;4.22;;;1.40;;
18048;SDS011;9149;47.002;8.604;2023-11-21T12:00:08;2.97;;;1.10;;
18048;SDS011;9149;47.002;8.604;2023-11-21T12:02:37;3.83;;;1.10;;
18048;SDS011;9149;47.002;8.604;2023-11-21T12:05:09;1.37;;;1.00;;
18048;SDS011;9149;47.002;8.604;2023-11-21T12:07:41;1.83;;;1.20;;
18048;SDS011;9149;47.002;8.604;2023-11-21T12:10:12;1.20;;;1.00;;
18048;SDS011;9149;47.002;8.604;2023-11-21T12:12:42;4.57;;;1.30;;
18048;SDS011;9149;47.002;8.604;2023-11-21T12:15:10;1.77;;;0.80;;
18048;SDS011;9149;47.002;8.604;2023-11-21T12:17:38;1.17;;;0.90;;
18048;SDS011;9149;47.002;8.604;2023-11-21T12:20:06;1.27;;;1.00;;
18048;SDS011;9149;47.002;8.604;2023-11-21T12:22:42;5.00;;;1.27;;
18048;SDS011;9149;47.002;8.604;2023-11-21T12:25:12;2.07;;;1.30;;
18048;SDS011;9149;47.002;8.604;2023-11-21T12:27:42;1.10;;;1.00;;
18048;SDS011;9149;47.002;8.604;2023-11-21T12:30:12;2.80;;;0.80;;
18048;SDS011;9149;47.002;8.604;2023-11-21T12:32:42;0.77;;;0.77;;
18048;SDS011;9149;47.002;8.604;2023-11-21T12:35:11;1.30;;;0.90;;
18048;SDS011;9149;47.002;8.604;2023-11-21T12:37:40;1.10;;;0.83;;
18048;SDS011;9149;47.002;8.604;2023-11-21T12:40:09;2.10;;;1.10;;
18048;SDS011;9149;47.002;8.604;2023-11-21T12:42:40;4.97;;;1.20;;
18048;SDS011;9149;47.002;8.604;2023-11-21T12:45:09;6.10;;;1.10;;
18048;SDS011;9149;47.002;8.604;2023-11-21T12:47:41;3.20;;;0.90;;
18048;SDS011;9149;47.002;8.604;2023-11-21T12:50:09;1.00;;;0.90;;
18048;SDS011;9149;47.002;8.604;2023-11-21T12:52:41;1.00;;;0.90;;
18048;SDS011;9149;47.002;8.604;2023-11-21T12:55:10;0.80;;;0.80;;
18048;SDS011;9149;47.002;8.604;2023-11-21T12:57:43;0.80;;;0.80;;
18048;SDS011;9149;47.002;8.604;2023-11-21T13:00:12;2.10;;;0.90;;
18048;SDS011;9149;47.002;8.604;2023-11-21T13:02:51;1.07;;;0.97;;
18048;SDS011;9149;47.002;8.604;2023-11-21T13:05:25;1.27;;;1.00;;
18048;SDS011;9149;47.002;8.604;2023-11-21T13:07:53;1.00;;;0.90;;
18048;SDS011;9149;47.002;8.604;2023-11-21T13:10:22;4.10;;;1.00;;
18048;SDS011;9149;47.002;8.604;2023-11-21T13:12:53;1.00;;;0.90;;
18048;SDS011;9149;47.002;8.604;2023-11-21T13:15:24;0.73;;;0.70;;
18048;SDS011;9149;47.002;8.604;2023-11-21T13:17:52;0.70;;;0.70;;
18048;SDS011;9149;47.002;8.604;2023-11-21T13:20:22;0.80;;;0.80;;
18048;SDS011;9149;47.002;8.604;2023-11-21T13:22:51;1.33;;;0.93;;
18048;SDS011;9149;47.002;8.604;2023-11-21T13:25:21;0.90;;;0.80;;
18048;SDS011;9149;47.002;8.604;2023-11-21T13:27:49;2.63;;;0.80;;
18048;SDS011;9149;47.002;8.604;2023-11-21T13:30:18;1.00;;;0.90;;
18048;SDS011;9149;47.002;8.604;2023-11-21T13:32:50;1.10;;;1.00;;
18048;SDS011;9149;47.002;8.604;2023-11-21T13:35:18;3.53;;;1.00;;
18048;SDS011;9149;47.002;8.604;2023-11-21T13:37:50;3.27;;;1.10;;
18048;SDS011;9149;47.002;8.604;2023-11-21T13:40:22;1.03;;;0.80;;
18048;SDS011;9149;47.002;8.604;2023-11-21T13:42:53;0.70;;;0.70;;
18048;SDS011;9149;47.002;8.604;2023-11-21T13:45:23;2.43;;;1.20;;
18048;SDS011;9149;47.002;8.604;2023-11-21T13:47:52;1.47;;;0.80;;
18048;SDS011;9149;47.002;8.604;2023-11-21T13:50:24;0.70;;;0.70;;
18048;SDS011;9149;47.002;8.604;2023-11-21T13:52:56;0.90;;;0.80;;
18048;SDS011;9149;47.002;8.604;2023-11-21T13:55:25;1.00;;;0.83;;
18048;SDS011;9149;47.002;8.604;2023-11-21T13:57:54;1.00;;;0.70;;
18048;SDS011;9149;47.002;8.604;2023-11-21T14:00:23;2.20;;;0.90;;
18048;SDS011;9149;47.002;8.604;2023-11-21T14:03:08;0.70;;;0.70;;
18048;SDS011;9149;47.002;8.604;2023-11-21T14:05:44;1.77;;;1.27;;
18048;SDS011;9149;47.002;8.604;2023-11-21T14:08:13;1.10;;;1.00;;
18048;SDS011;9149;47.002;8.604;2023-11-21T14:10:43;0.80;;;0.80;;
18048;SDS011;9149;47.002;8.604;2023-11-21T14:13:15;1.23;;;0.90;;
18048;SDS011;9149;47.002;8.604;2023-11-21T14:15:45;3.10;;;0.90;;
18048;SDS011;9149;47.002;8.604;2023-11-21T14:18:17;0.87;;;0.87;;
18048;SDS011;9149;47.002;8.604;2023-11-21T14:20:53;1.13;;;0.83;;
18048;SDS011;9149;47.002;8.604;2023-11-21T14:23:21;0.70;;;0.70;;
18048;SDS011;9149;47.002;8.604;2023-11-21T14:25:50;5.07;;;0.70;;
18048;SDS011;9149;47.002;8.604;2023-11-21T14:28:18;1.50;;;1.00;;
18048;SDS011;9149;47.002;8.604;2023-11-21T14:30:47;1.73;;;0.90;;
18048;SDS011;9149;47.002;8.604;2023-11-21T14:33:15;0.80;;;0.80;;
18048;SDS011;9149;47.002;8.604;2023-11-21T14:35:43;3.27;;;1.27;;
18048;SDS011;9149;47.002;8.604;2023-11-21T14:38:11;1.10;;;1.00;;
18048;SDS011;9149;47.002;8.604;2023-11-21T14:40:41;1.00;;;0.90;;
18048;SDS011;9149;47.002;8.604;2023-11-21T14:43:09;1.70;;;0.90;;
18048;SDS011;9149;47.002;8.604;2023-11-21T14:45:36;1.30;;;1.00;;
18048;SDS011;9149;47.002;8.604;2023-11-21T14:48:06;1.63;;;0.97;;
18048;SDS011;9149;47.002;8.604;2023-11-21T14:50:42;3.27;;;0.80;;
18048;SDS011;9149;47.002;8.604;2023-11-21T14:53:36;0.87;;;0.80;;
18048;SDS011;9149;47.002;8.604;2023-11-21T14:56:20;0.80;;;0.80;;
18048;SDS011;9149;47.002;8.604;2023-11-21T14:58:53;0.80;;;0.80;;
18048;SDS011;9149;47.002;8.604;2023-11-21T15:01:20;1.33;;;1.10;;
18048;SDS011;9149;47.002;8.604;2023-11-21T15:04:01;1.63;;;1.00;;
18048;SDS011;9149;47.002;8.604;2023-11-21T15:06:28;2.73;;;1.10;;
18048;SDS011;9149;47.002;8.604;2023-11-21T15:08:57;1.80;;;1.33;;
18048;SDS011;9149;47.002;8.604;2023-11-21T15:11:47;1.63;;;0.90;;
18048;SDS011;9149;47.002;8.604;2023-11-21T15:14:15;1.67;;;0.70;;
18048;SDS011;9149;47.002;8.604;2023-11-21T15:16:48;1.43;;;0.90;;
18048;SDS011;9149;47.002;8.604;2023-11-21T15:19:21;1.33;;;0.90;;
18048;SDS011;9149;47.002;8.604;2023-11-21T15:21:53;1.40;;;1.00;;